sensor_id;sensor_type;location;lat;lon;timestamp;temperature;humidity
38866;DHT22;62686;48.984;8.394;2022-12-07T00:01:33;3.90;86.80
38866;DHT22;62686;48.984;8.394;2022-12-07T00:04:03;3.90;87.40
38866;DHT22;62686;48.984;8.394;2022-12-07T00:06:33;3.90;87.80
38866;DHT22;62686;48.984;8.394;2022-12-07T00:09:03;3.90;88.00
38866;DHT22;62686;48.984;8.394;2022-12-07T00:11:32;3.90;87.90
38866;DHT22;62686;48.984;8.394;2022-12-07T00:14:03;3.90;88.00
38866;DHT22;62686;48.984;8.394;2022-12-07T00:16:32;3.90;88.30
38866;DHT22;62686;48.984;8.394;2022-12-07T00:19:03;3.90;87.90
38866;DHT22;62686;48.984;8.394;2022-12-07T00:21:33;3.90;87.60
38866;DHT22;62686;48.984;8.394;2022-12-07T00:24:03;3.90;87.50
38866;DHT22;62686;48.984;8.394;2022-12-07T00:26:36;3.90;87.70
38866;DHT22;62686;48.984;8.394;2022-12-07T00:29:05;3.90;88.30
38866;DHT22;62686;48.984;8.394;2022-12-07T00:31:36;3.90;88.70
38866;DHT22;62686;48.984;8.394;2022-12-07T00:34:11;3.90;88.80
38866;DHT22;62686;48.984;8.394;2022-12-07T00:36:40;3.90;88.80
38866;DHT22;62686;48.984;8.394;2022-12-07T00:39:10;3.90;89.00
38866;DHT22;62686;48.984;8.394;2022-12-07T00:41:38;3.90;89.40
38866;DHT22;62686;48.984;8.394;2022-12-07T00:44:06;3.90;89.70
38866;DHT22;62686;48.984;8.394;2022-12-07T00:46:34;3.90;89.60
38866;DHT22;62686;48.984;8.394;2022-12-07T00:49:03;3.90;89.40
38866;DHT22;62686;48.984;8.394;2022-12-07T00:51:32;3.90;89.50
38866;DHT22;62686;48.984;8.394;2022-12-07T00:54:01;3.80;89.70
38866;DHT22;62686;48.984;8.394;2022-12-07T00:56:29;3.80;90.00
38866;DHT22;62686;48.984;8.394;2022-12-07T00:58:58;3.80;90.10
38866;DHT22;62686;48.984;8.394;2022-12-07T01:01:28;3.80;90.20
38866;DHT22;62686;48.984;8.394;2022-12-07T01:03:57;3.80;90.30
38866;DHT22;62686;48.984;8.394;2022-12-07T01:06:28;3.80;90.50
38866;DHT22;62686;48.984;8.394;2022-12-07T01:08:58;3.90;90.70
38866;DHT22;62686;48.984;8.394;2022-12-07T01:11:28;3.80;90.60
38866;DHT22;62686;48.984;8.394;2022-12-07T01:13:57;3.80;90.60
38866;DHT22;62686;48.984;8.394;2022-12-07T01:16:28;3.80;90.60
38866;DHT22;62686;48.984;8.394;2022-12-07T01:18:58;3.70;90.50
38866;DHT22;62686;48.984;8.394;2022-12-07T01:21:27;3.70;90.60
38866;DHT22;62686;48.984;8.394;2022-12-07T01:23:58;3.70;90.70
38866;DHT22;62686;48.984;8.394;2022-12-07T01:26:28;3.70;90.80
38866;DHT22;62686;48.984;8.394;2022-12-07T01:28:56;3.70;90.80
38866;DHT22;62686;48.984;8.394;2022-12-07T01:31:26;3.70;91.00
38866;DHT22;62686;48.984;8.394;2022-12-07T01:33:56;3.60;91.10
38866;DHT22;62686;48.984;8.394;2022-12-07T01:36:29;3.60;91.20
38866;DHT22;62686;48.984;8.394;2022-12-07T01:39:01;3.70;91.50
38866;DHT22;62686;48.984;8.394;2022-12-07T01:41:32;3.70;92.00
38866;DHT22;62686;48.984;8.394;2022-12-07T01:44:11;3.70;91.70
38866;DHT22;62686;48.984;8.394;2022-12-07T01:46:40;3.70;91.70
38866;DHT22;62686;48.984;8.394;2022-12-07T01:49:14;3.70;91.80
38866;DHT22;62686;48.984;8.394;2022-12-07T01:51:43;3.70;91.80
38866;DHT22;62686;48.984;8.394;2022-12-07T01:54:15;3.60;91.60
38866;DHT22;62686;48.984;8.394;2022-12-07T01:56:49;3.60;91.50
38866;DHT22;62686;48.984;8.394;2022-12-07T01:59:21;3.60;91.70
38866;DHT22;62686;48.984;8.394;2022-12-07T02:01:49;3.60;91.80
38866;DHT22;62686;48.984;8.394;2022-12-07T02:04:18;3.60;92.00
38866;DHT22;62686;48.984;8.394;2022-12-07T02:06:47;3.60;92.10
38866;DHT22;62686;48.984;8.394;2022-12-07T02:09:17;3.50;92.20
38866;DHT22;62686;48.984;8.394;2022-12-07T02:11:45;3.50;92.30
38866;DHT22;62686;48.984;8.394;2022-12-07T02:14:13;3.40;92.20
38866;DHT22;62686;48.984;8.394;2022-12-07T02:16:50;3.40;92.20
38866;DHT22;62686;48.984;8.394;2022-12-07T02:19:56;3.40;92.30
38866;DHT22;62686;48.984;8.394;2022-12-07T02:22:48;3.40;92.60
38866;DHT22;62686;48.984;8.394;2022-12-07T02:25:29;3.40;93.00
38866;DHT22;62686;48.984;8.394;2022-12-07T02:28:04;3.50;93.30
38866;DHT22;62686;48.984;8.394;2022-12-07T02:30:40;3.40;93.40
38866;DHT22;62686;48.984;8.394;2022-12-07T02:33:14;3.50;93.60
38866;DHT22;62686;48.984;8.394;2022-12-07T02:35:48;3.50;93.80
38866;DHT22;62686;48.984;8.394;2022-12-07T02:38:20;3.50;94.00
38866;DHT22;62686;48.984;8.394;2022-12-07T02:40:53;3.60;94.10
38866;DHT22;62686;48.984;8.394;2022-12-07T02:43:25;3.60;94.20
38866;DHT22;62686;48.984;8.394;2022-12-07T02:45:59;3.60;94.30
38866;DHT22;62686;48.984;8.394;2022-12-07T02:48:30;3.60;94.30
38866;DHT22;62686;48.984;8.394;2022-12-07T02:51:02;3.60;94.40
38866;DHT22;62686;48.984;8.394;2022-12-07T02:53:35;3.60;94.40
38866;DHT22;62686;48.984;8.394;2022-12-07T02:56:10;3.70;94.40
38866;DHT22;62686;48.984;8.394;2022-12-07T02:58:50;3.70;94.40
38866;DHT22;62686;48.984;8.394;2022-12-07T03:01:30;3.70;94.40
38866;DHT22;62686;48.984;8.394;2022-12-07T03:04:05;3.70;94.40
38866;DHT22;62686;48.984;8.394;2022-12-07T03:06:41;3.60;94.30
38866;DHT22;62686;48.984;8.394;2022-12-07T03:09:15;3.60;94.30
38866;DHT22;62686;48.984;8.394;2022-12-07T03:11:56;3.70;94.40
38866;DHT22;62686;48.984;8.394;2022-12-07T03:14:30;3.80;94.40
38866;DHT22;62686;48.984;8.394;2022-12-07T03:17:05;3.80;94.30
38866;DHT22;62686;48.984;8.394;2022-12-07T03:19:34;3.80;94.10
38866;DHT22;62686;48.984;8.394;2022-12-07T03:22:05;3.80;93.80
38866;DHT22;62686;48.984;8.394;2022-12-07T03:24:41;3.80;93.70
38866;DHT22;62686;48.984;8.394;2022-12-07T03:27:13;3.80;93.40
38866;DHT22;62686;48.984;8.394;2022-12-07T03:29:49;3.80;93.10
38866;DHT22;62686;48.984;8.394;2022-12-07T03:32:32;3.80;92.60
38866;DHT22;62686;48.984;8.394;2022-12-07T03:35:05;3.80;92.10
38866;DHT22;62686;48.984;8.394;2022-12-07T03:37:40;3.70;91.70
38866;DHT22;62686;48.984;8.394;2022-12-07T03:40:14;3.70;91.50
38866;DHT22;62686;48.984;8.394;2022-12-07T03:42:45;3.70;91.30
38866;DHT22;62686;48.984;8.394;2022-12-07T03:45:14;3.50;90.40
38866;DHT22;62686;48.984;8.394;2022-12-07T03:47:48;3.30;88.20
38866;DHT22;62686;48.984;8.394;2022-12-07T03:50:24;3.20;86.80
38866;DHT22;62686;48.984;8.394;2022-12-07T03:52:54;3.00;86.20
38866;DHT22;62686;48.984;8.394;2022-12-07T03:55:27;2.90;88.90
38866;DHT22;62686;48.984;8.394;2022-12-07T03:57:59;2.90;90.10
38866;DHT22;62686;48.984;8.394;2022-12-07T04:00:27;2.90;91.60
38866;DHT22;62686;48.984;8.394;2022-12-07T04:02:57;2.90;92.30
38866;DHT22;62686;48.984;8.394;2022-12-07T04:05:26;2.90;92.70
38866;DHT22;62686;48.984;8.394;2022-12-07T04:07:54;2.90;93.00
38866;DHT22;62686;48.984;8.394;2022-12-07T04:10:22;3.00;93.40
38866;DHT22;62686;48.984;8.394;2022-12-07T04:12:50;2.90;93.60
38866;DHT22;62686;48.984;8.394;2022-12-07T04:15:18;3.00;93.80
38866;DHT22;62686;48.984;8.394;2022-12-07T04:17:46;3.00;93.90
38866;DHT22;62686;48.984;8.394;2022-12-07T04:20:15;3.00;94.00
38866;DHT22;62686;48.984;8.394;2022-12-07T04:22:43;3.00;94.00
38866;DHT22;62686;48.984;8.394;2022-12-07T04:25:11;3.10;94.10
38866;DHT22;62686;48.984;8.394;2022-12-07T04:27:39;3.10;94.10
38866;DHT22;62686;48.984;8.394;2022-12-07T04:30:08;3.10;94.20
38866;DHT22;62686;48.984;8.394;2022-12-07T04:32:36;3.10;94.20
38866;DHT22;62686;48.984;8.394;2022-12-07T04:35:05;3.20;94.40
38866;DHT22;62686;48.984;8.394;2022-12-07T04:37:34;3.20;94.50
38866;DHT22;62686;48.984;8.394;2022-12-07T04:40:03;3.30;94.60
38866;DHT22;62686;48.984;8.394;2022-12-07T04:42:31;3.30;94.70
38866;DHT22;62686;48.984;8.394;2022-12-07T04:44:59;3.30;94.60
38866;DHT22;62686;48.984;8.394;2022-12-07T04:47:27;3.30;94.50
38866;DHT22;62686;48.984;8.394;2022-12-07T04:49:55;3.40;94.60
38866;DHT22;62686;48.984;8.394;2022-12-07T04:52:23;3.40;94.50
38866;DHT22;62686;48.984;8.394;2022-12-07T04:54:53;3.30;94.50
38866;DHT22;62686;48.984;8.394;2022-12-07T04:57:21;3.40;94.50
38866;DHT22;62686;48.984;8.394;2022-12-07T04:59:49;3.40;94.40
38866;DHT22;62686;48.984;8.394;2022-12-07T05:02:17;3.40;94.40
38866;DHT22;62686;48.984;8.394;2022-12-07T05:04:45;3.40;94.30
38866;DHT22;62686;48.984;8.394;2022-12-07T05:07:14;3.40;94.30
38866;DHT22;62686;48.984;8.394;2022-12-07T05:09:42;3.40;94.20
38866;DHT22;62686;48.984;8.394;2022-12-07T05:12:12;3.40;94.10
38866;DHT22;62686;48.984;8.394;2022-12-07T05:14:40;3.40;94.00
38866;DHT22;62686;48.984;8.394;2022-12-07T05:17:08;3.40;93.90
38866;DHT22;62686;48.984;8.394;2022-12-07T05:19:38;3.30;93.70
38866;DHT22;62686;48.984;8.394;2022-12-07T05:22:09;3.40;93.60
38866;DHT22;62686;48.984;8.394;2022-12-07T05:24:39;3.40;93.50
38866;DHT22;62686;48.984;8.394;2022-12-07T05:27:07;3.40;93.40
38866;DHT22;62686;48.984;8.394;2022-12-07T05:29:36;3.40;93.30
38866;DHT22;62686;48.984;8.394;2022-12-07T05:32:04;3.50;92.90
38866;DHT22;62686;48.984;8.394;2022-12-07T05:34:33;3.40;92.40
38866;DHT22;62686;48.984;8.394;2022-12-07T05:37:01;3.40;92.00
38866;DHT22;62686;48.984;8.394;2022-12-07T05:39:29;3.50;91.80
38866;DHT22;62686;48.984;8.394;2022-12-07T05:41:57;3.40;91.50
38866;DHT22;62686;48.984;8.394;2022-12-07T05:44:46;3.50;91.50
38866;DHT22;62686;48.984;8.394;2022-12-07T05:47:16;3.50;91.20
38866;DHT22;62686;48.984;8.394;2022-12-07T05:49:44;3.50;91.00
38866;DHT22;62686;48.984;8.394;2022-12-07T05:52:12;3.50;90.80
38866;DHT22;62686;48.984;8.394;2022-12-07T05:54:40;3.50;90.50
38866;DHT22;62686;48.984;8.394;2022-12-07T05:57:08;3.50;90.20
38866;DHT22;62686;48.984;8.394;2022-12-07T05:59:37;3.60;89.10
38866;DHT22;62686;48.984;8.394;2022-12-07T06:02:08;3.50;87.40
38866;DHT22;62686;48.984;8.394;2022-12-07T06:04:41;3.50;86.30
38866;DHT22;62686;48.984;8.394;2022-12-07T06:07:10;3.50;86.10
38866;DHT22;62686;48.984;8.394;2022-12-07T06:09:39;3.60;86.70
38866;DHT22;62686;48.984;8.394;2022-12-07T06:12:09;3.50;85.60
38866;DHT22;62686;48.984;8.394;2022-12-07T06:14:55;3.60;85.50
38866;DHT22;62686;48.984;8.394;2022-12-07T06:17:24;3.50;85.40
38866;DHT22;62686;48.984;8.394;2022-12-07T06:19:52;3.50;85.00
38866;DHT22;62686;48.984;8.394;2022-12-07T06:22:21;3.50;84.60
38866;DHT22;62686;48.984;8.394;2022-12-07T06:24:49;3.60;84.30
38866;DHT22;62686;48.984;8.394;2022-12-07T06:27:17;3.60;83.50
38866;DHT22;62686;48.984;8.394;2022-12-07T06:29:45;3.60;81.80
38866;DHT22;62686;48.984;8.394;2022-12-07T06:32:13;3.70;80.20
38866;DHT22;62686;48.984;8.394;2022-12-07T06:34:43;3.60;78.20
38866;DHT22;62686;48.984;8.394;2022-12-07T06:37:11;3.60;78.00
38866;DHT22;62686;48.984;8.394;2022-12-07T06:39:40;3.60;77.30
38866;DHT22;62686;48.984;8.394;2022-12-07T06:42:08;3.60;77.60
38866;DHT22;62686;48.984;8.394;2022-12-07T06:44:36;3.60;77.80
38866;DHT22;62686;48.984;8.394;2022-12-07T06:47:04;3.60;77.60
38866;DHT22;62686;48.984;8.394;2022-12-07T06:49:55;3.60;76.50
38866;DHT22;62686;48.984;8.394;2022-12-07T06:52:23;3.60;76.50
38866;DHT22;62686;48.984;8.394;2022-12-07T06:54:51;3.50;76.30
38866;DHT22;62686;48.984;8.394;2022-12-07T06:57:19;3.50;76.40
38866;DHT22;62686;48.984;8.394;2022-12-07T06:59:47;3.60;77.00
38866;DHT22;62686;48.984;8.394;2022-12-07T07:02:16;3.60;76.20
38866;DHT22;62686;48.984;8.394;2022-12-07T07:04:44;3.60;74.80
38866;DHT22;62686;48.984;8.394;2022-12-07T07:07:13;3.60;73.80
38866;DHT22;62686;48.984;8.394;2022-12-07T07:09:41;3.60;73.60
38866;DHT22;62686;48.984;8.394;2022-12-07T07:12:10;3.60;73.50
38866;DHT22;62686;48.984;8.394;2022-12-07T07:14:38;3.60;70.00
38866;DHT22;62686;48.984;8.394;2022-12-07T07:17:06;3.70;68.10
38866;DHT22;62686;48.984;8.394;2022-12-07T07:19:34;3.70;67.50
38866;DHT22;62686;48.984;8.394;2022-12-07T07:22:03;3.70;64.60
38866;DHT22;62686;48.984;8.394;2022-12-07T07:24:32;3.70;62.40
38866;DHT22;62686;48.984;8.394;2022-12-07T07:27:01;3.70;62.90
38866;DHT22;62686;48.984;8.394;2022-12-07T07:29:29;3.70;61.50
38866;DHT22;62686;48.984;8.394;2022-12-07T07:31:57;3.70;60.00
38866;DHT22;62686;48.984;8.394;2022-12-07T07:34:27;3.70;59.00
38866;DHT22;62686;48.984;8.394;2022-12-07T07:36:55;3.80;58.20
38866;DHT22;62686;48.984;8.394;2022-12-07T07:39:23;3.80;55.70
38866;DHT22;62686;48.984;8.394;2022-12-07T07:41:53;3.80;53.30
38866;DHT22;62686;48.984;8.394;2022-12-07T07:44:24;3.80;51.50
38866;DHT22;62686;48.984;8.394;2022-12-07T07:46:54;3.80;53.10
38866;DHT22;62686;48.984;8.394;2022-12-07T07:49:22;3.80;51.50
38866;DHT22;62686;48.984;8.394;2022-12-07T07:51:50;3.80;50.60
38866;DHT22;62686;48.984;8.394;2022-12-07T07:54:18;3.90;52.10
38866;DHT22;62686;48.984;8.394;2022-12-07T07:56:46;3.80;50.80
38866;DHT22;62686;48.984;8.394;2022-12-07T07:59:16;3.90;48.30
38866;DHT22;62686;48.984;8.394;2022-12-07T08:01:46;4.00;42.20
38866;DHT22;62686;48.984;8.394;2022-12-07T08:04:14;4.00;36.90
38866;DHT22;62686;48.984;8.394;2022-12-07T08:06:42;4.00;35.10
38866;DHT22;62686;48.984;8.394;2022-12-07T08:09:11;4.00;37.80
38866;DHT22;62686;48.984;8.394;2022-12-07T08:11:39;4.00;33.50
38866;DHT22;62686;48.984;8.394;2022-12-07T08:14:07;4.00;31.50
38866;DHT22;62686;48.984;8.394;2022-12-07T08:16:37;4.00;31.00
38866;DHT22;62686;48.984;8.394;2022-12-07T08:19:08;4.00;31.10
38866;DHT22;62686;48.984;8.394;2022-12-07T08:21:37;4.10;27.30
38866;DHT22;62686;48.984;8.394;2022-12-07T08:24:07;4.20;18.40
38866;DHT22;62686;48.984;8.394;2022-12-07T08:26:35;4.10;18.30
38866;DHT22;62686;48.984;8.394;2022-12-07T08:29:03;4.20;17.60
38866;DHT22;62686;48.984;8.394;2022-12-07T08:31:31;4.20;16.80
38866;DHT22;62686;48.984;8.394;2022-12-07T08:34:01;4.20;17.20
38866;DHT22;62686;48.984;8.394;2022-12-07T08:36:29;4.20;16.10
38866;DHT22;62686;48.984;8.394;2022-12-07T08:38:58;4.20;15.40
38866;DHT22;62686;48.984;8.394;2022-12-07T08:41:46;4.20;17.10
38866;DHT22;62686;48.984;8.394;2022-12-07T08:44:14;4.30;13.30
38866;DHT22;62686;48.984;8.394;2022-12-07T08:46:46;4.40;14.50
38866;DHT22;62686;48.984;8.394;2022-12-07T08:49:19;4.50;9.60
38866;DHT22;62686;48.984;8.394;2022-12-07T08:51:48;4.50;3.80
38866;DHT22;62686;48.984;8.394;2022-12-07T08:54:17;4.50;2.60
38866;DHT22;62686;48.984;8.394;2022-12-07T08:56:47;4.60;3.50
38866;DHT22;62686;48.984;8.394;2022-12-07T08:59:18;4.60;2.90
38866;DHT22;62686;48.984;8.394;2022-12-07T09:01:46;4.60;2.20
38866;DHT22;62686;48.984;8.394;2022-12-07T09:04:14;4.60;1.90
38866;DHT22;62686;48.984;8.394;2022-12-07T09:06:44;4.60;2.30
38866;DHT22;62686;48.984;8.394;2022-12-07T09:09:14;4.50;1.00
38866;DHT22;62686;48.984;8.394;2022-12-07T09:11:42;4.60;3.40
38866;DHT22;62686;48.984;8.394;2022-12-07T09:14:12;4.60;1.00
38866;DHT22;62686;48.984;8.394;2022-12-07T09:16:40;4.70;1.00
38866;DHT22;62686;48.984;8.394;2022-12-07T09:19:08;4.70;1.00
38866;DHT22;62686;48.984;8.394;2022-12-07T09:21:36;4.80;1.00
38866;DHT22;62686;48.984;8.394;2022-12-07T09:24:06;4.90;1.00
38866;DHT22;62686;48.984;8.394;2022-12-07T09:26:35;5.00;1.00
38866;DHT22;62686;48.984;8.394;2022-12-07T09:29:06;5.10;1.00
38866;DHT22;62686;48.984;8.394;2022-12-07T09:31:36;5.10;1.00
38866;DHT22;62686;48.984;8.394;2022-12-07T09:34:04;5.20;1.00
38866;DHT22;62686;48.984;8.394;2022-12-07T09:36:34;5.40;1.00
38866;DHT22;62686;48.984;8.394;2022-12-07T09:39:02;5.40;1.00
38866;DHT22;62686;48.984;8.394;2022-12-07T09:41:37;5.40;1.00
38866;DHT22;62686;48.984;8.394;2022-12-07T09:44:09;5.40;1.00
38866;DHT22;62686;48.984;8.394;2022-12-07T09:46:41;5.50;1.00
38866;DHT22;62686;48.984;8.394;2022-12-07T09:49:12;5.50;1.00
38866;DHT22;62686;48.984;8.394;2022-12-07T09:51:42;5.50;1.00
38866;DHT22;62686;48.984;8.394;2022-12-07T09:54:13;5.50;1.00
38866;DHT22;62686;48.984;8.394;2022-12-07T09:56:43;5.50;1.00
38866;DHT22;62686;48.984;8.394;2022-12-07T09:59:16;5.60;1.00
38866;DHT22;62686;48.984;8.394;2022-12-07T10:01:49;5.60;1.00
38866;DHT22;62686;48.984;8.394;2022-12-07T10:04:19;5.60;1.00
38866;DHT22;62686;48.984;8.394;2022-12-07T10:06:48;5.60;1.00
38866;DHT22;62686;48.984;8.394;2022-12-07T10:09:18;5.60;1.00
38866;DHT22;62686;48.984;8.394;2022-12-07T10:12:03;5.60;1.00
38866;DHT22;62686;48.984;8.394;2022-12-07T10:14:34;5.70;1.00
38866;DHT22;62686;48.984;8.394;2022-12-07T10:17:35;5.70;1.00
38866;DHT22;62686;48.984;8.394;2022-12-07T10:20:15;5.80;1.00
38866;DHT22;62686;48.984;8.394;2022-12-07T10:22:55;5.90;1.00
38866;DHT22;62686;48.984;8.394;2022-12-07T10:25:28;5.90;1.00
38866;DHT22;62686;48.984;8.394;2022-12-07T10:28:11;6.00;1.00
38866;DHT22;62686;48.984;8.394;2022-12-07T10:30:48;6.00;1.00
38866;DHT22;62686;48.984;8.394;2022-12-07T10:33:35;5.90;1.00
38866;DHT22;62686;48.984;8.394;2022-12-07T10:36:22;5.80;1.00
38866;DHT22;62686;48.984;8.394;2022-12-07T10:38:52;5.60;1.00
38866;DHT22;62686;48.984;8.394;2022-12-07T10:41:20;5.50;1.00
38866;DHT22;62686;48.984;8.394;2022-12-07T10:43:52;5.60;1.00
38866;DHT22;62686;48.984;8.394;2022-12-07T10:46:53;5.50;1.00
38866;DHT22;62686;48.984;8.394;2022-12-07T10:50:03;5.60;1.00
38866;DHT22;62686;48.984;8.394;2022-12-07T10:52:52;5.60;1.00
38866;DHT22;62686;48.984;8.394;2022-12-07T10:55:28;5.60;1.00
38866;DHT22;62686;48.984;8.394;2022-12-07T10:58:15;5.60;1.00
38866;DHT22;62686;48.984;8.394;2022-12-07T11:00:54;5.60;1.00
38866;DHT22;62686;48.984;8.394;2022-12-07T11:03:39;5.50;1.00
38866;DHT22;62686;48.984;8.394;2022-12-07T11:06:16;5.40;1.00
38866;DHT22;62686;48.984;8.394;2022-12-07T11:09:00;5.40;1.00
38866;DHT22;62686;48.984;8.394;2022-12-07T11:11:34;5.50;1.00
38866;DHT22;62686;48.984;8.394;2022-12-07T11:14:11;5.50;1.00
38866;DHT22;62686;48.984;8.394;2022-12-07T11:16:55;5.50;1.00
38866;DHT22;62686;48.984;8.394;2022-12-07T11:19:47;5.50;1.00
38866;DHT22;62686;48.984;8.394;2022-12-07T11:22:23;5.70;1.00
38866;DHT22;62686;48.984;8.394;2022-12-07T11:25:00;5.80;1.00
38866;DHT22;62686;48.984;8.394;2022-12-07T11:27:37;5.90;1.00
38866;DHT22;62686;48.984;8.394;2022-12-07T11:30:13;5.90;1.00
38866;DHT22;62686;48.984;8.394;2022-12-07T11:32:59;6.00;1.00
38866;DHT22;62686;48.984;8.394;2022-12-07T11:35:38;6.10;1.00
38866;DHT22;62686;48.984;8.394;2022-12-07T11:38:13;6.20;1.00
38866;DHT22;62686;48.984;8.394;2022-12-07T11:40:46;6.30;1.00
38866;DHT22;62686;48.984;8.394;2022-12-07T11:43:21;6.40;1.00
38866;DHT22;62686;48.984;8.394;2022-12-07T11:45:57;6.60;1.00
38866;DHT22;62686;48.984;8.394;2022-12-07T11:48:33;6.70;1.00
38866;DHT22;62686;48.984;8.394;2022-12-07T11:51:03;6.80;1.00
38866;DHT22;62686;48.984;8.394;2022-12-07T11:53:37;6.90;1.00
38866;DHT22;62686;48.984;8.394;2022-12-07T11:56:10;6.80;1.00
38866;DHT22;62686;48.984;8.394;2022-12-07T11:58:49;6.60;1.00
38866;DHT22;62686;48.984;8.394;2022-12-07T12:01:29;6.40;1.00
38866;DHT22;62686;48.984;8.394;2022-12-07T12:04:07;6.20;1.00
38866;DHT22;62686;48.984;8.394;2022-12-07T12:06:42;6.10;1.00
38866;DHT22;62686;48.984;8.394;2022-12-07T12:09:13;6.00;1.00
38866;DHT22;62686;48.984;8.394;2022-12-07T12:15:25;6.10;1.00
38866;DHT22;62686;48.984;8.394;2022-12-07T12:18:26;6.20;1.00
38866;DHT22;62686;48.984;8.394;2022-12-07T12:21:02;6.30;1.00
38866;DHT22;62686;48.984;8.394;2022-12-07T12:23:37;6.30;1.00
38866;DHT22;62686;48.984;8.394;2022-12-07T12:26:15;6.40;1.00
38866;DHT22;62686;48.984;8.394;2022-12-07T12:28:52;6.40;1.00
38866;DHT22;62686;48.984;8.394;2022-12-07T12:31:36;6.50;1.00
38866;DHT22;62686;48.984;8.394;2022-12-07T12:34:30;6.70;1.00
38866;DHT22;62686;48.984;8.394;2022-12-07T12:37:00;6.70;1.00
38866;DHT22;62686;48.984;8.394;2022-12-07T12:39:28;6.70;1.00
38866;DHT22;62686;48.984;8.394;2022-12-07T12:42:00;6.70;1.00
38866;DHT22;62686;48.984;8.394;2022-12-07T12:44:41;6.70;1.00
38866;DHT22;62686;48.984;8.394;2022-12-07T12:47:41;6.60;1.00
38866;DHT22;62686;48.984;8.394;2022-12-07T12:50:17;6.50;1.00
38866;DHT22;62686;48.984;8.394;2022-12-07T12:52:55;6.40;1.00
38866;DHT22;62686;48.984;8.394;2022-12-07T12:58:44;6.30;1.00
38866;DHT22;62686;48.984;8.394;2022-12-07T13:04:25;6.30;1.00
38866;DHT22;62686;48.984;8.394;2022-12-07T13:06:54;6.20;1.00
38866;DHT22;62686;48.984;8.394;2022-12-07T13:09:26;6.10;1.00
38866;DHT22;62686;48.984;8.394;2022-12-07T13:11:58;6.10;1.00
38866;DHT22;62686;48.984;8.394;2022-12-07T13:14:53;5.90;1.00
38866;DHT22;62686;48.984;8.394;2022-12-07T13:18:00;5.80;1.00
38866;DHT22;62686;48.984;8.394;2022-12-07T13:20:44;5.70;1.00
38866;DHT22;62686;48.984;8.394;2022-12-07T13:23:13;5.70;1.00
38866;DHT22;62686;48.984;8.394;2022-12-07T13:26:04;5.60;1.00
38866;DHT22;62686;48.984;8.394;2022-12-07T13:28:36;5.60;1.00
38866;DHT22;62686;48.984;8.394;2022-12-07T13:31:33;5.50;1.00
38866;DHT22;62686;48.984;8.394;2022-12-07T13:34:02;5.50;1.00
38866;DHT22;62686;48.984;8.394;2022-12-07T13:36:33;5.50;1.00
38866;DHT22;62686;48.984;8.394;2022-12-07T13:39:18;5.50;1.00
38866;DHT22;62686;48.984;8.394;2022-12-07T13:41:52;5.40;1.00
38866;DHT22;62686;48.984;8.394;2022-12-07T13:44:20;5.40;1.00
38866;DHT22;62686;48.984;8.394;2022-12-07T13:46:53;5.40;1.00
38866;DHT22;62686;48.984;8.394;2022-12-07T13:49:25;5.40;1.00
38866;DHT22;62686;48.984;8.394;2022-12-07T13:51:54;5.40;1.00
38866;DHT22;62686;48.984;8.394;2022-12-07T13:54:22;5.40;1.00
38866;DHT22;62686;48.984;8.394;2022-12-07T13:56:54;5.40;1.00
38866;DHT22;62686;48.984;8.394;2022-12-07T13:59:24;5.40;1.00
38866;DHT22;62686;48.984;8.394;2022-12-07T14:01:53;5.40;1.00
38866;DHT22;62686;48.984;8.394;2022-12-07T14:04:32;5.40;1.00
38866;DHT22;62686;48.984;8.394;2022-12-07T14:07:01;5.30;1.00
38866;DHT22;62686;48.984;8.394;2022-12-07T14:09:54;5.40;1.00
38866;DHT22;62686;48.984;8.394;2022-12-07T14:12:26;5.40;1.00
38866;DHT22;62686;48.984;8.394;2022-12-07T14:14:55;5.40;1.00
38866;DHT22;62686;48.984;8.394;2022-12-07T14:17:26;5.40;1.00
38866;DHT22;62686;48.984;8.394;2022-12-07T14:19:55;5.40;1.00
38866;DHT22;62686;48.984;8.394;2022-12-07T14:22:29;5.40;1.00
38866;DHT22;62686;48.984;8.394;2022-12-07T14:25:13;5.40;1.00
38866;DHT22;62686;48.984;8.394;2022-12-07T14:27:53;5.40;1.00
38866;DHT22;62686;48.984;8.394;2022-12-07T14:30:27;5.40;1.00
38866;DHT22;62686;48.984;8.394;2022-12-07T14:33:02;5.40;1.00
38866;DHT22;62686;48.984;8.394;2022-12-07T14:35:31;5.40;1.00
38866;DHT22;62686;48.984;8.394;2022-12-07T14:38:00;5.30;1.00
38866;DHT22;62686;48.984;8.394;2022-12-07T14:40:28;5.30;1.00
38866;DHT22;62686;48.984;8.394;2022-12-07T14:43:01;5.30;1.00
38866;DHT22;62686;48.984;8.394;2022-12-07T14:45:31;5.30;1.00
38866;DHT22;62686;48.984;8.394;2022-12-07T14:47:59;5.20;1.00
38866;DHT22;62686;48.984;8.394;2022-12-07T14:50:50;5.20;1.00
38866;DHT22;62686;48.984;8.394;2022-12-07T14:53:40;5.20;1.00
38866;DHT22;62686;48.984;8.394;2022-12-07T14:56:09;5.20;1.00
38866;DHT22;62686;48.984;8.394;2022-12-07T14:58:39;5.20;1.00
38866;DHT22;62686;48.984;8.394;2022-12-07T15:01:07;5.20;1.00
38866;DHT22;62686;48.984;8.394;2022-12-07T15:03:35;5.20;1.00
38866;DHT22;62686;48.984;8.394;2022-12-07T15:06:05;5.10;1.00
38866;DHT22;62686;48.984;8.394;2022-12-07T15:08:33;5.00;1.00
38866;DHT22;62686;48.984;8.394;2022-12-07T15:11:02;5.00;1.00
38866;DHT22;62686;48.984;8.394;2022-12-07T15:13:30;5.00;1.00
38866;DHT22;62686;48.984;8.394;2022-12-07T15:16:19;4.90;1.00
38866;DHT22;62686;48.984;8.394;2022-12-07T15:18:47;4.90;1.00
38866;DHT22;62686;48.984;8.394;2022-12-07T15:21:30;4.90;1.00
38866;DHT22;62686;48.984;8.394;2022-12-07T15:23:58;4.90;1.00
38866;DHT22;62686;48.984;8.394;2022-12-07T15:26:26;4.90;1.00
38866;DHT22;62686;48.984;8.394;2022-12-07T15:28:54;4.90;1.00
38866;DHT22;62686;48.984;8.394;2022-12-07T15:31:24;4.90;1.00
38866;DHT22;62686;48.984;8.394;2022-12-07T15:34:12;4.80;1.00
38866;DHT22;62686;48.984;8.394;2022-12-07T15:36:40;4.80;2.20
38866;DHT22;62686;48.984;8.394;2022-12-07T15:39:08;4.80;4.00
38866;DHT22;62686;48.984;8.394;2022-12-07T15:41:42;4.80;6.80
38866;DHT22;62686;48.984;8.394;2022-12-07T15:44:12;4.70;6.70
38866;DHT22;62686;48.984;8.394;2022-12-07T15:46:59;4.70;6.20
38866;DHT22;62686;48.984;8.394;2022-12-07T15:49:28;4.70;6.80
38866;DHT22;62686;48.984;8.394;2022-12-07T15:51:56;4.70;8.00
38866;DHT22;62686;48.984;8.394;2022-12-07T15:54:25;4.70;7.00
38866;DHT22;62686;48.984;8.394;2022-12-07T15:56:54;4.70;10.50
38866;DHT22;62686;48.984;8.394;2022-12-07T15:59:23;4.60;13.30
38866;DHT22;62686;48.984;8.394;2022-12-07T16:01:51;4.60;10.10
38866;DHT22;62686;48.984;8.394;2022-12-07T16:04:21;4.60;8.50
38866;DHT22;62686;48.984;8.394;2022-12-07T16:06:49;4.60;11.40
38866;DHT22;62686;48.984;8.394;2022-12-07T16:09:17;4.60;10.10
38866;DHT22;62686;48.984;8.394;2022-12-07T16:11:48;4.50;13.40
38866;DHT22;62686;48.984;8.394;2022-12-07T16:14:16;4.50;16.20
38866;DHT22;62686;48.984;8.394;2022-12-07T16:16:44;4.40;16.30
38866;DHT22;62686;48.984;8.394;2022-12-07T16:19:15;4.40;17.10
38866;DHT22;62686;48.984;8.394;2022-12-07T16:21:44;4.20;20.90
38866;DHT22;62686;48.984;8.394;2022-12-07T16:24:13;4.20;22.40
38866;DHT22;62686;48.984;8.394;2022-12-07T16:26:42;4.20;26.50
38866;DHT22;62686;48.984;8.394;2022-12-07T16:29:14;4.10;27.50
38866;DHT22;62686;48.984;8.394;2022-12-07T16:31:42;4.10;29.40
38866;DHT22;62686;48.984;8.394;2022-12-07T16:34:13;4.10;30.70
38866;DHT22;62686;48.984;8.394;2022-12-07T16:36:41;4.10;28.80